Accueil
METAR-TAF:

METAR-TAF

Aéroports :

Aérodrome Salerne-Côte amalfitaine

Salerne, Italie

latitude: 40-37N, longitude: 014-55E, altitude: 40 m

Observation

Le bulletin a été fait il y a 8 heures et 2 minutes, à 15:50 UTC
Vent calme
Température 12°C
Humidité 94%
Pression 1005 hPa
Visibilité 10 km ou plus
Ciel couvert à une hauteur de 4000 ft
pluie

METAR: LIRI 031550Z 00000KT 9999 RA OVC040 12/11 Q1005

Heure: 00:52 (23:52 UTC)


TAF: absent

Observations et prévisions météorologiques de plus de 4000 aéroports (messages METAR et TAF).

Les stations disponibles sont représentées par des disques jaunes et rouges sur la carte.

Passer la souris dessus pour voir le nom de la station.

Cliquer dessus pour voir les observations et prévisions météorologiques.

Pour changer de carte: cliquez sur les boutons verts avec une croix noire pour zoomer, sur le bouton vert avec un tiret pour effectuer un zoom arrière, ou sur les flèches vertes pour les cartes adjacentes.


METAR-TAF: